createdAt,value
2019-01-03T00:00:11.810Z,-9.00
2019-01-03T00:01:11.760Z,-8.93
2019-01-03T00:02:12.389Z,-8.93
2019-01-03T00:03:11.739Z,-8.93
2019-01-03T00:04:11.731Z,-9.00
2019-01-03T00:05:11.750Z,-8.96
2019-01-03T00:06:11.747Z,-8.96
2019-01-03T00:07:11.701Z,-9.00
2019-01-03T00:08:11.687Z,-9.02
2019-01-03T00:09:11.676Z,-9.08
2019-01-03T00:10:11.711Z,-9.10
2019-01-03T00:11:11.658Z,-9.08
2019-01-03T00:12:11.667Z,-9.05
2019-01-03T00:13:11.639Z,-9.08
2019-01-03T00:14:11.630Z,-9.20
2019-01-03T00:15:11.618Z,-9.10
2019-01-03T00:16:11.626Z,-9.22
2019-01-03T00:17:11.599Z,-9.08
2019-01-03T00:18:11.627Z,-9.18
2019-01-03T00:19:11.574Z,-9.19
2019-01-03T00:20:11.566Z,-9.18
2019-01-03T00:21:11.560Z,-9.28
2019-01-03T00:22:11.547Z,-9.22
2019-01-03T00:23:11.560Z,-9.18
2019-01-03T00:24:11.697Z,-9.15
2019-01-03T00:25:11.518Z,-9.20
2019-01-03T00:26:11.506Z,-9.22
2019-01-03T00:27:11.501Z,-9.25
2019-01-03T00:28:21.831Z,-9.33
2019-01-03T00:29:11.476Z,-9.28
2019-01-03T00:30:11.484Z,-9.32
2019-01-03T00:31:11.456Z,-9.30
2019-01-03T00:32:11.454Z,-9.40
2019-01-03T00:33:11.434Z,-9.37
2019-01-03T00:34:11.423Z,-9.36
2019-01-03T00:35:11.418Z,-9.44
2019-01-03T00:36:11.446Z,-9.39
2019-01-03T00:37:11.395Z,-9.40
2019-01-03T00:38:11.383Z,-9.28
2019-01-03T00:39:11.373Z,-9.33
2019-01-03T00:40:11.369Z,-9.32
2019-01-03T00:41:11.353Z,-9.37
2019-01-03T00:42:11.381Z,-9.37
2019-01-03T00:43:11.331Z,-9.44
2019-01-03T00:44:11.322Z,-9.39
2019-01-03T00:45:11.311Z,-9.58
2019-01-03T00:46:11.308Z,-9.54
2019-01-03T00:47:18.450Z,-9.54
2019-01-03T00:48:11.281Z,-9.51
2019-01-03T00:49:11.270Z,-9.54
2019-01-03T00:50:11.261Z,-9.52
2019-01-03T00:51:11.257Z,-9.50
2019-01-03T00:52:11.239Z,-9.58
2019-01-03T00:53:11.272Z,-9.58
2019-01-03T00:54:11.222Z,-9.68
2019-01-03T00:55:11.233Z,-9.59
2019-01-03T00:56:11.201Z,-9.69
2019-01-03T00:57:11.194Z,-9.69
2019-01-03T00:58:11.179Z,-9.68
2019-01-03T00:59:11.222Z,-9.66
2019-01-03T01:00:11.161Z,-9.77
2019-01-03T01:01:11.153Z,-9.79
2019-01-03T01:02:11.139Z,-9.72
2019-01-03T01:03:11.128Z,-9.72
2019-01-03T01:04:11.148Z,-9.72
2019-01-03T01:05:11.152Z,-9.69
2019-01-03T01:06:11.099Z,-9.80
2019-01-03T01:07:11.092Z,-9.83
2019-01-03T01:08:11.890Z,-9.83
2019-01-03T01:09:11.068Z,-9.83
2019-01-03T01:10:11.060Z,-9.95
2019-01-03T01:11:11.092Z,-9.90
2019-01-03T01:12:11.040Z,-9.90
2019-01-03T01:13:11.031Z,-9.95
2019-01-03T01:14:11.019Z,-9.97
2019-01-03T01:15:11.007Z,-9.97
2019-01-03T01:16:10.999Z,-10.01
2019-01-03T01:17:11.027Z,-10.00
2019-01-03T01:18:21.002Z,-10.01
2019-01-03T01:19:10.969Z,-10.10
2019-01-03T01:20:10.955Z,-10.16
2019-01-03T01:21:10.948Z,-10.15
2019-01-03T01:22:10.939Z,-10.26
2019-01-03T01:23:10.974Z,-10.15
2019-01-03T01:24:10.917Z,-10.28
2019-01-03T01:25:10.909Z,-10.21
2019-01-03T01:26:10.895Z,-10.13
2019-01-03T01:27:10.927Z,-10.19
2019-01-03T01:28:10.883Z,-10.16
2019-01-03T01:29:10.907Z,-10.28
2019-01-03T01:30:10.880Z,-10.13
2019-01-03T01:31:10.845Z,-10.31
2019-01-03T01:32:10.837Z,-10.33
2019-01-03T01:33:10.826Z,-10.28
2019-01-03T01:34:10.816Z,-10.36
2019-01-03T01:35:10.877Z,-10.31
2019-01-03T01:36:10.798Z,-10.34
2019-01-03T01:37:10.788Z,-10.28
2019-01-03T01:38:10.780Z,-10.33
2019-01-03T01:39:10.764Z,-10.36
2019-01-03T01:40:10.755Z,-10.31
2019-01-03T01:41:10.762Z,-10.34
2019-01-03T01:42:10.736Z,-10.36
2019-01-03T01:43:10.765Z,-10.44
2019-01-03T01:44:10.717Z,-10.50
2019-01-03T01:45:10.705Z,-10.44
2019-01-03T01:46:10.697Z,-10.44
2019-01-03T01:47:10.724Z,-10.43
2019-01-03T01:48:10.673Z,-10.40
2019-01-03T01:49:20.908Z,-10.46
2019-01-03T01:50:10.654Z,-10.57
2019-01-03T01:51:10.745Z,-10.60
2019-01-03T01:52:10.634Z,-10.58
2019-01-03T01:53:10.795Z,-10.52
2019-01-03T01:54:10.620Z,-10.58
2019-01-03T01:55:10.601Z,-10.46
2019-01-03T01:56:10.594Z,-10.61
2019-01-03T01:57:10.582Z,-10.61
2019-01-03T01:58:10.578Z,-10.62
2019-01-03T01:59:10.601Z,-10.68
2019-01-03T02:00:10.552Z,-10.72
2019-01-03T02:01:10.544Z,-10.69
2019-01-03T02:02:10.532Z,-10.65
2019-01-03T02:03:10.525Z,-10.62
2019-01-03T02:04:10.512Z,-10.65
2019-01-03T02:05:10.545Z,-10.71
2019-01-03T02:06:10.492Z,-10.71
2019-01-03T02:07:10.479Z,-10.65
2019-01-03T02:08:10.470Z,-10.65
2019-01-03T02:09:10.463Z,-10.68
2019-01-03T02:10:10.460Z,-10.72
2019-01-03T02:11:10.615Z,-10.61
2019-01-03T02:12:10.431Z,-10.72
2019-01-03T02:13:10.421Z,-10.76
2019-01-03T02:14:10.944Z,-10.69
2019-01-03T02:15:10.399Z,-10.71
2019-01-03T02:16:10.389Z,-10.79
2019-01-03T02:17:10.434Z,-10.82
2019-01-03T02:18:10.370Z,-10.82
2019-01-03T02:19:10.363Z,-10.73
2019-01-03T02:20:23.114Z,-10.83
2019-01-03T02:21:10.338Z,-10.88
2019-01-03T02:22:10.328Z,-10.78
2019-01-03T02:23:10.491Z,-10.90
2019-01-03T02:24:10.309Z,-10.95
2019-01-03T02:25:10.299Z,-10.93
2019-01-03T02:26:10.297Z,-10.86
2019-01-03T02:27:10.281Z,-10.91
2019-01-03T02:28:10.270Z,-10.90
2019-01-03T02:29:10.298Z,-10.90
2019-01-03T02:30:10.247Z,-11.00
2019-01-03T02:31:10.243Z,-10.94
2019-01-03T02:32:10.233Z,-11.08
2019-01-03T02:33:10.220Z,-10.98
2019-01-03T02:34:10.207Z,-10.94
2019-01-03T02:35:10.236Z,-10.91
2019-01-03T02:36:10.186Z,-10.98
2019-01-03T02:37:10.178Z,-10.93
2019-01-03T02:38:10.168Z,-11.04
2019-01-03T02:39:10.161Z,-10.94
2019-01-03T02:40:10.189Z,-10.94
2019-01-03T02:41:10.153Z,-10.98
2019-01-03T02:42:10.129Z,-11.03
2019-01-03T02:43:10.116Z,-10.95
2019-01-03T02:44:10.134Z,-10.95
2019-01-03T02:45:10.101Z,-10.97
2019-01-03T02:46:10.089Z,-11.00
2019-01-03T02:47:10.095Z,-11.12
2019-01-03T02:48:10.066Z,-11.06
2019-01-03T02:49:10.086Z,-11.03
2019-01-03T02:50:10.049Z,-11.04
2019-01-03T02:51:20.261Z,-10.98
2019-01-03T02:52:10.026Z,-10.97
2019-01-03T02:53:10.055Z,-11.08
2019-01-03T02:54:10.012Z,-11.03
2019-01-03T02:55:09.998Z,-11.08
2019-01-03T02:56:09.990Z,-11.03
2019-01-03T02:57:10.490Z,-11.12
2019-01-03T02:58:09.967Z,-11.12
2019-01-03T02:59:09.973Z,-11.13
2019-01-03T03:00:09.948Z,-11.15
2019-01-03T03:01:09.935Z,-11.19
2019-01-03T03:02:09.931Z,-11.16
2019-01-03T03:03:09.916Z,-11.15
2019-01-03T03:04:09.916Z,-11.15
2019-01-03T03:05:09.935Z,-11.30
2019-01-03T03:06:09.885Z,-11.30
2019-01-03T03:07:09.874Z,-11.36
2019-01-03T03:08:09.864Z,-11.32
2019-01-03T03:09:09.860Z,-11.30
2019-01-03T03:10:09.845Z,-11.32
2019-01-03T03:11:09.876Z,-11.30
2019-01-03T03:12:09.828Z,-11.23
2019-01-03T03:13:09.815Z,-11.29
2019-01-03T03:14:09.804Z,-11.29
2019-01-03T03:15:09.798Z,-11.32
2019-01-03T03:16:09.784Z,-11.30
2019-01-03T03:17:09.944Z,-11.29
2019-01-03T03:18:09.763Z,-11.29
2019-01-03T03:19:09.753Z,-11.29
2019-01-03T03:20:10.481Z,-11.32
2019-01-03T03:21:09.740Z,-11.27
2019-01-03T03:22:22.603Z,-11.26
2019-01-03T03:23:09.716Z,-11.22
2019-01-03T03:24:09.704Z,-11.29
2019-01-03T03:25:09.711Z,-11.21
2019-01-03T03:26:09.682Z,-11.27
2019-01-03T03:27:09.675Z,-11.30
2019-01-03T03:28:09.712Z,-11.29
2019-01-03T03:29:09.653Z,-11.32
2019-01-03T03:30:09.644Z,-11.42
2019-01-03T03:31:09.640Z,-11.32
2019-01-03T03:32:09.624Z,-11.32
2019-01-03T03:33:09.611Z,-11.26
2019-01-03T03:34:09.649Z,-11.29
2019-01-03T03:35:09.591Z,-11.29
2019-01-03T03:36:09.589Z,-11.27
2019-01-03T03:37:09.582Z,-11.22
2019-01-03T03:38:09.572Z,-11.21
2019-01-03T03:39:09.553Z,-11.16
2019-01-03T03:40:09.613Z,-11.19
2019-01-03T03:41:09.529Z,-11.06
2019-01-03T03:42:09.520Z,-11.08
2019-01-03T03:43:09.517Z,-11.11
2019-01-03T03:44:09.508Z,-11.11
2019-01-03T03:45:09.491Z,-11.13
2019-01-03T03:46:09.521Z,-11.13
2019-01-03T03:47:09.472Z,-11.19
2019-01-03T03:48:09.460Z,-11.16
2019-01-03T03:49:09.452Z,-11.19
2019-01-03T03:50:09.448Z,-11.15
2019-01-03T03:51:09.442Z,-11.21
2019-01-03T03:52:09.465Z,-11.19
2019-01-03T03:53:20.828Z,-11.22
2019-01-03T03:54:09.402Z,-11.18
2019-01-03T03:55:09.391Z,-11.22
2019-01-03T03:56:09.404Z,-11.21
2019-01-03T03:57:09.373Z,-11.26
2019-01-03T03:58:09.440Z,-11.19
2019-01-03T03:59:09.349Z,-11.30
2019-01-03T04:00:09.348Z,-11.27
2019-01-03T04:01:09.330Z,-11.21
2019-01-03T04:02:09.321Z,-11.23
2019-01-03T04:03:10.041Z,-11.26
2019-01-03T04:04:09.335Z,-11.34
2019-01-03T04:05:09.289Z,-11.37
2019-01-03T04:06:09.282Z,-11.33
2019-01-03T04:07:09.278Z,-11.34
2019-01-03T04:08:09.260Z,-11.30
2019-01-03T04:09:09.249Z,-11.39
2019-01-03T04:10:09.255Z,-11.40
2019-01-03T04:11:09.230Z,-11.29
2019-01-03T04:12:09.218Z,-11.29
2019-01-03T04:13:09.224Z,-11.37
2019-01-03T04:14:09.196Z,-11.34
2019-01-03T04:15:09.191Z,-11.29
2019-01-03T04:16:09.352Z,-11.30
2019-01-03T04:17:09.168Z,-11.37
2019-01-03T04:18:09.157Z,-11.30
2019-01-03T04:19:09.151Z,-11.33
2019-01-03T04:20:09.149Z,-11.37
2019-01-03T04:21:09.129Z,-11.32
2019-01-03T04:22:09.160Z,-11.33
2019-01-03T04:23:09.109Z,-11.44
2019-01-03T04:24:19.736Z,-11.39
2019-01-03T04:25:09.086Z,-11.45
2019-01-03T04:26:09.077Z,-11.33
2019-01-03T04:27:09.071Z,-11.47
2019-01-03T04:28:09.831Z,-11.45
2019-01-03T04:29:09.054Z,-11.45
2019-01-03T04:30:09.054Z,-11.39
2019-01-03T04:31:09.034Z,-11.48
2019-01-03T04:32:09.020Z,-11.45
2019-01-03T04:33:09.019Z,-11.57
2019-01-03T04:34:09.176Z,-11.58
2019-01-03T04:35:08.986Z,-11.57
2019-01-03T04:36:08.979Z,-11.54
2019-01-03T04:37:08.967Z,-11.54
2019-01-03T04:38:08.961Z,-11.66
2019-01-03T04:39:08.953Z,-11.53
2019-01-03T04:40:08.975Z,-11.53
2019-01-03T04:41:08.963Z,-11.45
2019-01-03T04:42:08.915Z,-11.53
2019-01-03T04:43:08.909Z,-11.55
2019-01-03T04:44:08.902Z,-11.51
2019-01-03T04:45:08.894Z,-11.53
2019-01-03T04:46:09.109Z,-11.55
2019-01-03T04:47:08.869Z,-11.60
2019-01-03T04:48:08.859Z,-11.54
2019-01-03T04:49:08.850Z,-11.55
2019-01-03T04:50:08.864Z,-11.54
2019-01-03T04:51:08.830Z,-11.48
2019-01-03T04:52:08.882Z,-11.48
2019-01-03T04:53:08.807Z,-11.53
2019-01-03T04:54:08.798Z,-11.57
2019-01-03T04:55:18.753Z,-11.57
2019-01-03T04:56:08.780Z,-11.54
2019-01-03T04:57:08.770Z,-11.54
2019-01-03T04:58:08.801Z,-11.54
2019-01-03T04:59:08.748Z,-11.61
2019-01-03T05:00:08.735Z,-11.61
2019-01-03T05:01:08.727Z,-11.60
2019-01-03T05:02:08.715Z,-11.55
2019-01-03T05:03:08.722Z,-11.60
2019-01-03T05:04:08.739Z,-11.50
2019-01-03T05:05:08.689Z,-11.66
2019-01-03T05:06:08.702Z,-11.53
2019-01-03T05:07:08.666Z,-11.58
2019-01-03T05:08:08.656Z,-11.57
2019-01-03T05:09:09.581Z,-11.60
2019-01-03T05:10:08.790Z,-11.60
2019-01-03T05:11:08.633Z,-11.53
2019-01-03T05:12:08.649Z,-11.71
2019-01-03T05:13:08.605Z,-11.66
2019-01-03T05:14:08.598Z,-11.65
2019-01-03T05:15:08.586Z,-11.68
2019-01-03T05:16:08.602Z,-11.68
2019-01-03T05:17:08.567Z,-11.66
2019-01-03T05:18:08.588Z,-11.58
2019-01-03T05:19:08.595Z,-11.57
2019-01-03T05:20:08.541Z,-11.57
2019-01-03T05:21:08.529Z,-11.66
2019-01-03T05:22:08.633Z,-11.72
2019-01-03T05:23:08.516Z,-11.79
2019-01-03T05:24:08.526Z,-11.74
2019-01-03T05:25:08.490Z,-11.72
2019-01-03T05:26:18.830Z,-11.79
2019-01-03T05:27:15.743Z,-11.74
2019-01-03T05:28:08.455Z,-11.72
2019-01-03T05:29:08.447Z,-11.79
2019-01-03T05:30:08.443Z,-11.82
2019-01-03T05:31:08.430Z,-11.79
2019-01-03T05:32:08.416Z,-11.65
2019-01-03T05:33:08.448Z,-11.78
2019-01-03T05:34:08.398Z,-11.79
2019-01-03T05:35:08.412Z,-11.66
2019-01-03T05:36:08.378Z,-11.74
2019-01-03T05:37:08.370Z,-11.75
2019-01-03T05:38:08.380Z,-11.75
2019-01-03T05:39:08.390Z,-11.83
2019-01-03T05:40:08.343Z,-11.74
2019-01-03T05:41:08.327Z,-11.72
2019-01-03T05:42:08.325Z,-11.84
2019-01-03T05:43:08.339Z,-11.78
2019-01-03T05:44:08.301Z,-11.79
2019-01-03T05:45:08.337Z,-11.89
2019-01-03T05:46:08.279Z,-11.86
2019-01-03T05:47:08.271Z,-11.84
2019-01-03T05:48:08.261Z,-11.76
2019-01-03T05:49:08.286Z,-11.74
2019-01-03T05:50:08.240Z,-11.84
2019-01-03T05:51:08.272Z,-11.83
2019-01-03T05:52:08.221Z,-11.75
2019-01-03T05:53:08.213Z,-11.82
2019-01-03T05:54:08.200Z,-11.78
2019-01-03T05:55:08.190Z,-11.69
2019-01-03T05:56:08.204Z,-11.72
2019-01-03T05:57:08.242Z,-11.76
2019-01-03T05:58:18.719Z,-11.87
2019-01-03T05:59:15.146Z,-11.83
2019-01-03T06:00:08.142Z,-11.78
2019-01-03T06:01:08.133Z,-11.79
2019-01-03T06:02:08.121Z,-11.86
2019-01-03T06:03:08.149Z,-11.87
2019-01-03T06:04:08.132Z,-11.87
2019-01-03T06:05:08.090Z,-11.89
2019-01-03T06:06:08.084Z,-11.92
2019-01-03T06:07:08.094Z,-12.00
2019-01-03T06:08:08.063Z,-12.03
2019-01-03T06:09:08.098Z,-11.97
2019-01-03T06:10:08.043Z,-11.97
2019-01-03T06:11:08.031Z,-11.96
2019-01-03T06:12:08.022Z,-11.94
2019-01-03T06:13:08.042Z,-12.00
2019-01-03T06:14:08.006Z,-11.94
2019-01-03T06:15:08.211Z,-12.04
2019-01-03T06:16:07.982Z,-12.03
2019-01-03T06:17:07.974Z,-12.05
2019-01-03T06:18:07.972Z,-11.97
2019-01-03T06:19:07.969Z,-12.01
2019-01-03T06:20:07.947Z,-12.14
2019-01-03T06:21:07.974Z,-12.15
2019-01-03T06:22:07.925Z,-12.08
2019-01-03T06:23:07.916Z,-12.01
2019-01-03T06:24:07.907Z,-12.00
2019-01-03T06:25:07.900Z,-12.05
2019-01-03T06:26:07.886Z,-12.10
2019-01-03T06:27:07.950Z,-12.10
2019-01-03T06:28:08.154Z,-12.13
2019-01-03T06:29:07.858Z,-12.11
2019-01-03T06:30:18.404Z,-12.11
2019-01-03T06:31:15.134Z,-12.15
2019-01-03T06:32:15.245Z,-12.14
2019-01-03T06:33:16.617Z,-12.14
2019-01-03T06:34:14.798Z,-12.25
2019-01-03T06:35:07.797Z,-12.21
2019-01-03T06:36:07.785Z,-12.22
2019-01-03T06:37:07.777Z,-12.30
2019-01-03T06:38:07.788Z,-12.32
2019-01-03T06:39:07.760Z,-12.36
2019-01-03T06:40:07.774Z,-12.36
2019-01-03T06:41:07.739Z,-12.30
2019-01-03T06:42:07.735Z,-12.21
2019-01-03T06:43:07.721Z,-12.25
2019-01-03T06:44:07.747Z,-12.29
2019-01-03T06:45:07.718Z,-12.32
2019-01-03T06:46:07.689Z,-12.29
2019-01-03T06:47:07.681Z,-12.35
2019-01-03T06:48:07.685Z,-12.35
2019-01-03T06:49:07.659Z,-12.30
2019-01-03T06:50:07.755Z,-12.22
2019-01-03T06:51:07.638Z,-12.30
2019-01-03T06:52:07.627Z,-12.32
2019-01-03T06:53:07.622Z,-12.43
2019-01-03T06:54:07.625Z,-12.43
2019-01-03T06:55:07.599Z,-12.35
2019-01-03T06:56:07.761Z,-12.32
2019-01-03T06:57:07.579Z,-12.29
2019-01-03T06:58:07.569Z,-12.38
2019-01-03T06:59:07.558Z,-12.38
2019-01-03T07:00:07.575Z,-12.46
2019-01-03T07:01:07.541Z,-12.35
2019-01-03T07:02:07.568Z,-12.43
2019-01-03T07:03:07.519Z,-12.35
2019-01-03T07:04:07.510Z,-12.35
2019-01-03T07:05:19.110Z,-12.46
2019-01-03T07:06:14.473Z,-12.41
2019-01-03T07:07:16.374Z,-12.36
2019-01-03T07:08:14.456Z,-12.47
2019-01-03T07:09:14.958Z,-12.46
2019-01-03T07:10:07.452Z,-12.44
2019-01-03T07:11:07.439Z,-12.47
2019-01-03T07:12:07.434Z,-12.46
2019-01-03T07:13:07.461Z,-12.47
2019-01-03T07:14:07.419Z,-12.40
2019-01-03T07:15:07.429Z,-12.46
2019-01-03T07:16:07.392Z,-12.44
2019-01-03T07:17:07.381Z,-12.47
2019-01-03T07:18:07.412Z,-12.47
2019-01-03T07:19:07.405Z,-12.43
2019-01-03T07:20:07.355Z,-12.47
2019-01-03T07:21:07.371Z,-12.50
2019-01-03T07:22:07.335Z,-12.53
2019-01-03T07:23:07.323Z,-12.44
2019-01-03T07:24:07.318Z,-12.40
2019-01-03T07:25:07.341Z,-12.44
2019-01-03T07:26:07.331Z,-12.51
2019-01-03T07:27:07.293Z,-12.51
2019-01-03T07:28:07.277Z,-12.44
2019-01-03T07:29:07.267Z,-12.46
2019-01-03T07:30:07.253Z,-12.48
2019-01-03T07:31:07.265Z,-12.50
2019-01-03T07:32:07.266Z,-12.53
2019-01-03T07:33:07.229Z,-12.58
2019-01-03T07:34:07.215Z,-12.50
2019-01-03T07:35:07.210Z,-12.53
2019-01-03T07:36:07.196Z,-12.59
2019-01-03T07:37:07.223Z,-12.48
2019-01-03T07:38:07.207Z,-12.51
2019-01-03T07:39:07.169Z,-12.48
2019-01-03T07:40:17.086Z,-12.47
2019-01-03T07:41:14.142Z,-12.46
2019-01-03T07:42:07.133Z,-12.53
2019-01-03T07:43:07.166Z,-12.44
2019-01-03T07:44:07.117Z,-12.51
2019-01-03T07:45:07.124Z,-12.53
2019-01-03T07:46:07.116Z,-12.50
2019-01-03T07:47:07.087Z,-12.58
2019-01-03T07:48:07.078Z,-12.53
2019-01-03T07:49:07.113Z,-12.48
2019-01-03T07:50:07.057Z,-12.50
2019-01-03T07:51:07.049Z,-12.56
2019-01-03T07:52:07.035Z,-12.53
2019-01-03T07:53:07.029Z,-12.47
2019-01-03T07:54:07.018Z,-12.50
2019-01-03T07:55:07.049Z,-12.59
2019-01-03T07:56:07.073Z,-12.47
2019-01-03T07:57:06.986Z,-12.56
2019-01-03T07:58:06.977Z,-12.48
2019-01-03T07:59:06.968Z,-12.46
2019-01-03T08:00:06.960Z,-12.44
2019-01-03T08:01:06.966Z,-12.43
2019-01-03T08:02:06.957Z,-12.43
2019-01-03T08:03:06.937Z,-12.46
2019-01-03T08:04:06.920Z,-12.46
2019-01-03T08:05:06.909Z,-12.43
2019-01-03T08:06:06.901Z,-12.46
2019-01-03T08:07:06.945Z,-12.44
2019-01-03T08:08:06.911Z,-12.41
2019-01-03T08:09:06.869Z,-12.35
2019-01-03T08:10:06.860Z,-12.44
2019-01-03T08:11:06.848Z,-12.41
2019-01-03T08:12:17.476Z,-12.48
2019-01-03T08:13:06.829Z,-12.40
2019-01-03T08:14:06.830Z,-12.47
2019-01-03T08:15:06.811Z,-12.46
2019-01-03T08:16:06.799Z,-12.47
2019-01-03T08:17:06.861Z,-12.50
2019-01-03T08:18:06.819Z,-12.46
2019-01-03T08:19:08.098Z,-12.41
2019-01-03T08:20:06.792Z,-12.43
2019-01-03T08:21:06.750Z,-12.43
2019-01-03T08:22:06.739Z,-12.43
2019-01-03T08:23:06.729Z,-12.38
2019-01-03T08:24:06.739Z,-12.33
2019-01-03T08:25:06.747Z,-12.35
2019-01-03T08:26:06.701Z,-12.32
2019-01-03T08:27:06.689Z,-12.35
2019-01-03T08:28:06.680Z,-12.44
2019-01-03T08:29:06.669Z,-12.41
2019-01-03T08:30:06.831Z,-12.43
2019-01-03T08:31:06.676Z,-12.43
2019-01-03T08:32:06.641Z,-12.40
2019-01-03T08:33:06.632Z,-12.50
2019-01-03T08:34:06.626Z,-12.43
2019-01-03T08:35:06.613Z,-12.43
2019-01-03T08:36:06.806Z,-12.43
2019-01-03T08:37:06.612Z,-12.50
2019-01-03T08:38:06.582Z,-12.41
2019-01-03T08:39:06.573Z,-12.48
2019-01-03T08:40:06.560Z,-12.47
2019-01-03T08:41:06.550Z,-12.44
2019-01-03T08:42:06.564Z,-12.54
2019-01-03T08:43:16.923Z,-12.47
2019-01-03T08:44:13.516Z,-12.54
2019-01-03T08:45:06.512Z,-12.48
2019-01-03T08:46:06.500Z,-12.46
2019-01-03T08:47:06.497Z,-12.56
2019-01-03T08:48:06.529Z,-12.41
2019-01-03T08:49:06.472Z,-12.51
2019-01-03T08:50:06.462Z,-12.53
2019-01-03T08:51:06.480Z,-12.51
2019-01-03T08:52:06.442Z,-12.48
2019-01-03T08:53:06.435Z,-12.58
2019-01-03T08:54:06.469Z,-12.53
2019-01-03T08:55:06.438Z,-12.43
2019-01-03T08:56:06.401Z,-12.46
2019-01-03T08:57:06.395Z,-12.46
2019-01-03T08:58:06.385Z,-12.46
2019-01-03T08:59:06.374Z,-12.54
2019-01-03T09:00:06.539Z,-12.47
2019-01-03T09:01:06.353Z,-12.48
2019-01-03T09:02:06.344Z,-12.53
2019-01-03T09:03:06.333Z,-12.54
2019-01-03T09:04:06.332Z,-12.51
2019-01-03T09:05:06.314Z,-12.56
2019-01-03T09:06:06.411Z,-12.47
2019-01-03T09:07:06.328Z,-12.41
2019-01-03T09:08:06.283Z,-12.48
2019-01-03T09:09:06.273Z,-12.44
2019-01-03T09:10:06.268Z,-12.41
2019-01-03T09:11:06.250Z,-12.41
2019-01-03T09:12:06.285Z,-12.41
2019-01-03T09:13:06.258Z,-12.41
2019-01-03T09:14:06.223Z,-12.43
2019-01-03T09:15:16.513Z,-12.41
2019-01-03T09:16:13.489Z,-12.46
2019-01-03T09:17:06.191Z,-12.50
2019-01-03T09:18:09.578Z,-12.40
2019-01-03T09:19:06.175Z,-12.43
2019-01-03T09:20:06.167Z,-12.43
2019-01-03T09:21:06.153Z,-12.47
2019-01-03T09:22:06.154Z,-12.48
2019-01-03T09:23:06.141Z,-12.43
2019-01-03T09:24:06.366Z,-12.46
2019-01-03T09:25:06.114Z,-12.41
2019-01-03T09:26:06.104Z,-12.35
2019-01-03T09:27:12.253Z,-12.40
2019-01-03T09:28:07.082Z,-12.43
2019-01-03T09:29:06.092Z,-12.33
2019-01-03T09:30:06.101Z,-12.44
2019-01-03T09:31:06.054Z,-12.44
2019-01-03T09:32:06.069Z,-12.43
2019-01-03T09:33:06.032Z,-12.36
2019-01-03T09:34:06.021Z,-12.33
2019-01-03T09:35:06.011Z,-12.46
2019-01-03T09:36:06.039Z,-12.36
2019-01-03T09:37:06.012Z,-12.30
2019-01-03T09:38:05.979Z,-12.29
2019-01-03T09:39:05.972Z,-12.36
2019-01-03T09:40:05.963Z,-12.32
2019-01-03T09:41:05.966Z,-12.38
2019-01-03T09:42:05.980Z,-12.41
2019-01-03T09:43:05.950Z,-12.29
2019-01-03T09:44:05.922Z,-12.35
2019-01-03T09:45:05.910Z,-12.35
2019-01-03T09:46:05.904Z,-12.33
2019-01-03T09:47:17.574Z,-12.38
2019-01-03T09:48:05.879Z,-12.33
2019-01-03T09:49:05.870Z,-12.32
2019-01-03T09:50:05.861Z,-12.40
2019-01-03T09:51:05.852Z,-12.24
2019-01-03T09:52:05.839Z,-12.24
2019-01-03T09:53:06.120Z,-12.21
2019-01-03T09:54:05.818Z,-12.14
2019-01-03T09:55:05.811Z,-12.19
2019-01-03T09:56:05.799Z,-12.17
2019-01-03T09:57:05.816Z,-12.15
2019-01-03T09:58:05.779Z,-12.14
2019-01-03T09:59:05.810Z,-11.94
2019-01-03T10:00:05.759Z,-11.51
2019-01-03T10:01:05.750Z,-10.68
2019-01-03T10:02:05.779Z,-9.89
2019-01-03T10:03:05.727Z,-9.15
2019-01-03T10:04:05.719Z,-8.65
2019-01-03T10:05:05.749Z,-8.31
2019-01-03T10:06:05.696Z,-7.83
2019-01-03T10:07:05.687Z,-7.72
2019-01-03T10:08:05.713Z,-7.25
2019-01-03T10:09:05.663Z,-7.18
2019-01-03T10:10:05.653Z,-7.07
2019-01-03T10:11:05.822Z,-6.84
2019-01-03T10:12:05.633Z,-6.73
2019-01-03T10:13:05.626Z,-6.31
2019-01-03T10:14:05.643Z,-6.22
2019-01-03T10:15:05.603Z,-6.04
2019-01-03T10:16:05.621Z,-6.05
2019-01-03T10:17:05.621Z,-6.03
2019-01-03T10:18:15.534Z,-6.36
2019-01-03T10:19:05.556Z,-6.83
2019-01-03T10:20:05.549Z,-6.43
2019-01-03T10:21:05.540Z,-6.40
2019-01-03T10:22:05.525Z,-6.16
2019-01-03T10:23:05.558Z,-6.11
2019-01-03T10:24:05.504Z,-5.89
2019-01-03T10:25:05.498Z,-5.66
2019-01-03T10:26:05.494Z,-5.75
2019-01-03T10:27:05.471Z,-5.51
2019-01-03T10:28:05.463Z,-5.68
2019-01-03T10:29:05.501Z,-5.64
2019-01-03T10:30:05.441Z,-5.48
2019-01-03T10:31:05.433Z,-5.61
2019-01-03T10:32:05.418Z,-5.62
2019-01-03T10:33:05.410Z,-5.64
2019-01-03T10:34:05.401Z,-6.01
2019-01-03T10:35:05.433Z,-5.86
2019-01-03T10:36:05.375Z,-6.18
2019-01-03T10:37:05.368Z,-6.16
2019-01-03T10:38:05.358Z,-6.16
2019-01-03T10:39:05.346Z,-6.34
2019-01-03T10:40:05.335Z,-5.97
2019-01-03T10:41:05.359Z,-6.15
2019-01-03T10:42:05.320Z,-6.26
2019-01-03T10:43:05.306Z,-6.19
2019-01-03T10:44:05.293Z,-6.29
2019-01-03T10:45:05.383Z,-6.01
2019-01-03T10:46:05.277Z,-6.04
2019-01-03T10:47:05.306Z,-6.04
2019-01-03T10:48:05.248Z,-6.08
2019-01-03T10:49:15.800Z,-6.05
2019-01-03T10:50:05.227Z,-6.54
2019-01-03T10:51:05.214Z,-6.37
2019-01-03T10:52:05.204Z,-6.49
2019-01-03T10:53:05.236Z,-6.32
2019-01-03T10:54:05.185Z,-6.32
2019-01-03T10:55:05.177Z,-6.44
2019-01-03T10:56:05.169Z,-6.44
2019-01-03T10:57:05.163Z,-6.50
2019-01-03T10:58:05.141Z,-6.21
2019-01-03T10:59:05.174Z,-6.08
2019-01-03T11:00:05.126Z,-5.80
2019-01-03T11:01:05.111Z,-5.94
2019-01-03T11:02:05.099Z,-5.80
2019-01-03T11:03:05.088Z,-5.80
2019-01-03T11:04:05.080Z,-5.76
2019-01-03T11:05:05.084Z,-5.74
2019-01-03T11:06:05.061Z,-5.76
2019-01-03T11:07:05.049Z,-6.34
2019-01-03T11:08:05.034Z,-7.12
2019-01-03T11:09:05.023Z,-7.44
2019-01-03T11:10:05.018Z,-7.23
2019-01-03T11:11:05.043Z,-6.84
2019-01-03T11:12:04.991Z,-6.73
2019-01-03T11:13:04.982Z,-6.73
2019-01-03T11:14:04.970Z,-6.84
2019-01-03T11:15:04.966Z,-7.13
2019-01-03T11:16:04.947Z,-6.83
2019-01-03T11:17:04.978Z,-6.79
2019-01-03T11:18:04.925Z,-7.19
2019-01-03T11:19:04.916Z,-7.22
2019-01-03T11:20:15.849Z,-6.84
2019-01-03T11:21:04.899Z,-6.71
2019-01-03T11:22:04.882Z,-6.32
2019-01-03T11:23:04.915Z,-6.05
2019-01-03T11:24:04.859Z,-6.25
2019-01-03T11:25:04.850Z,-6.10
2019-01-03T11:26:04.844Z,-6.04
2019-01-03T11:27:11.812Z,-6.23
2019-01-03T11:28:04.818Z,-6.04
2019-01-03T11:29:04.846Z,-6.29
2019-01-03T11:30:04.797Z,-6.73
2019-01-03T11:31:04.784Z,-6.84
2019-01-03T11:32:12.059Z,-7.12
2019-01-03T11:33:12.053Z,-7.39
2019-01-03T11:34:04.751Z,-7.25
2019-01-03T11:35:04.786Z,-7.23
2019-01-03T11:36:04.728Z,-7.51
2019-01-03T11:37:04.718Z,-8.01
2019-01-03T11:38:04.708Z,-8.33
2019-01-03T11:39:11.992Z,-8.87
2019-01-03T11:40:04.687Z,-9.39
2019-01-03T11:41:12.878Z,-9.84
2019-01-03T11:42:04.667Z,-10.15
2019-01-03T11:43:12.252Z,-10.05
2019-01-03T11:44:12.243Z,-9.94
2019-01-03T11:45:04.636Z,-10.19
2019-01-03T11:46:04.625Z,-10.43
2019-01-03T11:47:04.773Z,-10.91
2019-01-03T11:48:11.600Z,-11.03
2019-01-03T11:49:04.592Z,-11.06
2019-01-03T11:50:04.583Z,-11.13
2019-01-03T11:51:04.574Z,-11.18
2019-01-03T11:52:04.573Z,-11.32
2019-01-03T11:53:04.590Z,-11.23
2019-01-03T11:54:04.542Z,-10.88
2019-01-03T11:55:04.562Z,-10.25
2019-01-03T11:56:04.518Z,-9.61
2019-01-03T11:57:04.509Z,-9.20
2019-01-03T11:58:04.498Z,-9.36
2019-01-03T11:59:04.530Z,-9.48
2019-01-03T12:00:04.499Z,-10.08
2019-01-03T12:01:04.464Z,-10.31
2019-01-03T12:02:04.453Z,-10.52
2019-01-03T12:03:04.443Z,-10.82
2019-01-03T12:04:05.079Z,-11.16
2019-01-03T12:05:04.464Z,-11.22
2019-01-03T12:06:04.432Z,-11.40
2019-01-03T12:07:04.400Z,-11.58
2019-01-03T12:08:04.393Z,-11.65
2019-01-03T12:09:04.382Z,-11.69
2019-01-03T12:10:04.374Z,-11.65
2019-01-03T12:11:04.383Z,-11.55
2019-01-03T12:12:04.374Z,-11.50
2019-01-03T12:13:04.340Z,-11.84
2019-01-03T12:14:04.331Z,-11.86
2019-01-03T12:15:04.320Z,-11.83
2019-01-03T12:16:04.311Z,-11.83
2019-01-03T12:17:04.343Z,-11.84
2019-01-03T12:18:04.312Z,-11.69
2019-01-03T12:19:14.744Z,-11.69
2019-01-03T12:20:04.268Z,-11.66
2019-01-03T12:21:04.261Z,-11.84
2019-01-03T12:22:04.254Z,-12.05
2019-01-03T12:23:04.276Z,-12.15
2019-01-03T12:24:04.255Z,-12.33
2019-01-03T12:25:04.216Z,-12.32
2019-01-03T12:26:04.210Z,-12.43
2019-01-03T12:27:04.198Z,-12.47
2019-01-03T12:28:04.793Z,-12.58
2019-01-03T12:29:04.217Z,-12.51
2019-01-03T12:30:04.164Z,-12.62
2019-01-03T12:31:04.162Z,-12.67
2019-01-03T12:32:04.156Z,-12.67
2019-01-03T12:33:04.138Z,-12.69
2019-01-03T12:34:04.147Z,-12.67